Enter the Airport ICAO Code

Search by Airport or City

Current Weather

MMSP | Ponciano Arriaga International Airport

San Luis Potosí City, San Luis Potosí, Mexico

Last Update 37 Minutes Ago

Clear Sky

Temperature of 12 ºC

Calm Wind

Temperature

12 ºC

Dew Point Temperature

09 ºC

Relative Humidity

81.94 %

Wind Direction

None

Wind Velocity

0 km/h (0 kt)

Gusts

None

Visibility

Reduced to 8 Miles

Sea Level Pressure

30.28 inHg (Inches of Mercury)

Layers of Clouds

None

METAR MMSP 131047Z 00000KT 8SM SKC 12/09 A3028

Weather Forecast

MMSP | Ponciano Arriaga International Airport

San Luis Potosí City, San Luis Potosí, Mexico

Forecast valid for the next 31 Hours

In 1 hour it is expected the begining of:

Clear Sky

Light to Moderate Winds from NorthWest

In 1 hour it is expected the begining of 2 hours with intermittent periods of:

Mostly Cloudy Sky

In 7 hours it is expected the begining of:

Partly Cloudy Sky

Moderate Winds from SouthEast

In 16 hours it is expected the begining of:

Clear Sky

Light to Moderate Winds from SouthEast

In 31 hours it is expected the begining of:

Partly Cloudy Sky

Moderate Winds from SouthEast

Maximum Temperature

28 ºC in 9 Hours

Minimum Temperature

12 ºC in 1 Hour

TAF MMSP 131002Z 1312/1418 30005KT 6SM HZ SKC TX28/1320Z TN12/1312Z TEMPO 1312/1314 BKN015 FM131800 12010KT P6SM SCT020 FM140300 13005KT 6SM HZ SKC FM141800 13010KT P6SM SCT030